createdAt,value
2023-04-14T00:02:09.570Z,95.70
2023-04-14T00:04:36.926Z,95.70
2023-04-14T00:07:04.047Z,95.70
2023-04-14T00:09:30.916Z,95.60
2023-04-14T00:11:58.065Z,95.60
2023-04-14T00:14:24.987Z,95.60
2023-04-14T00:16:51.993Z,95.60
2023-04-14T00:19:18.988Z,95.60
2023-04-14T00:21:45.992Z,95.60
2023-04-14T00:24:12.846Z,95.60
2023-04-14T00:26:39.882Z,95.60
2023-04-14T00:29:06.776Z,95.60
2023-04-14T00:31:34.393Z,95.60
2023-04-14T00:34:01.350Z,95.70
2023-04-14T00:36:28.992Z,95.70
2023-04-14T00:38:56.079Z,95.70
2023-04-14T00:41:24.846Z,95.70
2023-04-14T00:43:55.525Z,95.70
2023-04-14T00:46:22.801Z,95.70
2023-04-14T00:48:50.297Z,95.70
2023-04-14T00:51:17.503Z,95.70
2023-04-14T00:53:44.645Z,95.70
2023-04-14T00:56:12.433Z,95.70
2023-04-14T00:58:39.507Z,95.70
2023-04-14T01:01:06.703Z,95.70
2023-04-14T01:03:34.182Z,95.70
2023-04-14T01:06:01.402Z,95.70
2023-04-14T01:08:28.652Z,95.70
2023-04-14T01:11:12.005Z,95.70
2023-04-14T01:13:59.192Z,95.70
2023-04-14T01:16:33.733Z,95.70
2023-04-14T01:19:21.034Z,95.70
2023-04-14T01:21:53.219Z,95.70
2023-04-14T01:24:41.011Z,95.60
2023-04-14T01:27:40.670Z,95.70
2023-04-14T01:30:22.457Z,95.70
2023-04-14T01:32:53.574Z,95.70
2023-04-14T01:35:33.451Z,95.80
2023-04-14T01:38:06.329Z,95.80
2023-04-14T01:40:35.178Z,95.80
2023-04-14T01:43:08.496Z,95.80
2023-04-14T01:45:44.403Z,95.80
2023-04-14T01:48:12.425Z,96.10
2023-04-14T01:50:41.967Z,95.80
2023-04-14T01:53:12.430Z,95.90
2023-04-14T01:55:41.678Z,95.90
2023-04-14T01:58:09.963Z,95.90
2023-04-14T02:00:40.631Z,95.90
2023-04-14T02:03:07.868Z,95.90
2023-04-14T02:05:38.528Z,95.90
2023-04-14T02:08:10.288Z,95.90
2023-04-14T02:10:40.630Z,95.90
2023-04-14T02:13:10.619Z,95.80
2023-04-14T02:15:40.751Z,95.90
2023-04-14T02:18:08.327Z,95.80
2023-04-14T02:20:42.651Z,95.80
2023-04-14T02:23:12.082Z,95.80
2023-04-14T02:25:46.166Z,95.80
2023-04-14T02:28:27.102Z,95.90
2023-04-14T02:30:57.868Z,95.90
2023-04-14T02:33:31.533Z,95.90
2023-04-14T02:36:29.369Z,95.90
2023-04-14T02:39:01.086Z,95.90
2023-04-14T02:41:30.730Z,95.90
2023-04-14T02:44:27.388Z,96.20
2023-04-14T02:47:11.738Z,95.90
2023-04-14T02:49:46.830Z,96.00
2023-04-14T02:52:17.752Z,95.90
2023-04-14T02:54:47.992Z,95.90
2023-04-14T02:57:16.517Z,95.90
2023-04-14T02:59:47.699Z,96.00
2023-04-14T03:02:17.638Z,96.00
2023-04-14T03:04:50.073Z,96.10
2023-04-14T03:07:28.114Z,96.10
2023-04-14T03:09:55.877Z,96.10
2023-04-14T03:12:24.905Z,96.10
2023-04-14T03:14:53.068Z,96.20
2023-04-14T03:17:21.791Z,96.20
2023-04-14T03:19:52.658Z,96.20
2023-04-14T03:22:22.184Z,96.20
2023-04-14T03:24:50.819Z,96.20
2023-04-14T03:27:22.972Z,96.20
2023-04-14T03:29:53.722Z,96.20
2023-04-14T03:32:25.927Z,96.30
2023-04-14T03:34:58.011Z,96.40
2023-04-14T03:37:28.102Z,96.40
2023-04-14T03:40:00.655Z,96.40
2023-04-14T03:42:30.554Z,96.50
2023-04-14T03:45:00.479Z,96.50
2023-04-14T03:47:31.647Z,96.60
2023-04-14T03:50:02.606Z,96.60
2023-04-14T03:52:35.615Z,96.50
2023-04-14T03:55:06.744Z,96.50
2023-04-14T03:57:37.566Z,96.60
2023-04-14T04:00:08.518Z,96.60
2023-04-14T04:02:43.925Z,96.60
2023-04-14T04:05:13.046Z,96.60
2023-04-14T04:07:41.485Z,96.70
2023-04-14T04:10:09.059Z,96.70
2023-04-14T04:12:37.792Z,96.70
2023-04-14T04:15:08.337Z,96.70
2023-04-14T04:17:37.309Z,96.70
2023-04-14T04:20:16.473Z,96.70
2023-04-14T04:22:49.791Z,96.70
2023-04-14T04:25:17.683Z,96.70
2023-04-14T04:27:51.978Z,96.70
2023-04-14T04:30:21.843Z,96.70
2023-04-14T04:32:49.028Z,96.70
2023-04-14T04:35:17.333Z,96.70
2023-04-14T04:37:47.292Z,96.70
2023-04-14T04:40:14.879Z,96.50
2023-04-14T04:42:42.723Z,96.40
2023-04-14T04:45:12.600Z,96.50
2023-04-14T04:47:41.638Z,96.60
2023-04-14T04:50:08.724Z,96.60
2023-04-14T04:52:35.807Z,96.70
2023-04-14T04:55:02.686Z,96.70
2023-04-14T04:57:29.689Z,96.70
2023-04-14T04:59:56.749Z,96.70
2023-04-14T05:02:23.984Z,96.70
2023-04-14T05:04:51.669Z,96.70
2023-04-14T05:07:19.871Z,96.70
2023-04-14T05:09:46.736Z,96.70
2023-04-14T05:12:13.690Z,96.70
2023-04-14T05:14:40.664Z,96.70
2023-04-14T05:17:07.661Z,96.70
2023-04-14T05:19:34.548Z,96.70
2023-04-14T05:22:02.059Z,96.70
2023-04-14T05:24:28.927Z,96.70
2023-04-14T05:27:12.966Z,96.70
2023-04-14T05:29:41.333Z,96.70
2023-04-14T05:32:08.471Z,96.70
2023-04-14T05:34:35.757Z,96.70
2023-04-14T05:37:03.089Z,96.70
2023-04-14T05:39:30.134Z,96.70
2023-04-14T05:41:57.024Z,96.70
2023-04-14T05:44:24.258Z,96.70
2023-04-14T05:46:51.301Z,96.70
2023-04-14T05:49:18.316Z,96.70
2023-04-14T05:51:45.535Z,96.70
2023-04-14T05:54:12.573Z,96.70
2023-04-14T05:56:39.448Z,96.70
2023-04-14T05:59:06.469Z,96.60
2023-04-14T06:01:33.444Z,96.90
2023-04-14T06:04:01.145Z,96.70
2023-04-14T06:06:28.383Z,96.70
2023-04-14T06:08:55.309Z,96.70
2023-04-14T06:11:22.151Z,96.70
2023-04-14T06:13:50.386Z,96.70
2023-04-14T06:16:17.297Z,96.60
2023-04-14T06:18:44.344Z,96.50
2023-04-14T06:21:12.151Z,96.30
2023-04-14T06:23:39.041Z,96.30
2023-04-14T06:26:06.742Z,96.30
2023-04-14T06:28:33.746Z,96.20
2023-04-14T06:31:00.735Z,96.20
2023-04-14T06:33:27.661Z,96.10
2023-04-14T06:35:55.025Z,96.10
2023-04-14T06:38:22.042Z,96.10
2023-04-14T06:40:49.158Z,96.10
2023-04-14T06:43:18.178Z,96.10
2023-04-14T06:45:45.404Z,96.10
2023-04-14T06:48:13.339Z,96.00
2023-04-14T06:50:41.503Z,95.90
2023-04-14T06:53:09.533Z,95.90
2023-04-14T06:55:36.473Z,95.90
2023-04-14T06:58:04.003Z,95.80
2023-04-14T07:00:31.589Z,95.60
2023-04-14T07:02:58.787Z,95.40
2023-04-14T07:05:26.451Z,95.30
2023-04-14T07:07:53.404Z,95.40
2023-04-14T07:10:20.268Z,95.10
2023-04-14T07:12:47.231Z,95.00
2023-04-14T07:15:16.861Z,94.50
2023-04-14T07:17:43.962Z,94.70
2023-04-14T07:20:11.570Z,94.80
2023-04-14T07:22:39.528Z,94.70
2023-04-14T07:25:06.757Z,94.70
2023-04-14T07:27:33.774Z,94.70
2023-04-14T07:30:00.905Z,94.50
2023-04-14T07:32:28.098Z,94.60
2023-04-14T07:34:55.598Z,94.60
2023-04-14T07:37:23.818Z,94.60
2023-04-14T07:39:50.723Z,94.70
2023-04-14T07:42:17.875Z,94.70
2023-04-14T07:44:44.754Z,94.30
2023-04-14T07:47:11.907Z,94.30
2023-04-14T07:49:38.854Z,94.40
2023-04-14T07:52:07.265Z,94.60
2023-04-14T07:54:34.821Z,94.60
2023-04-14T07:57:02.407Z,94.60
2023-04-14T07:59:29.393Z,94.70
2023-04-14T08:01:56.884Z,94.90
2023-04-14T08:04:23.923Z,95.00
2023-04-14T08:06:51.231Z,95.00
2023-04-14T08:09:18.175Z,95.10
2023-04-14T08:11:45.183Z,95.10
2023-04-14T08:14:12.069Z,94.50
2023-04-14T08:16:39.099Z,94.20
2023-04-14T08:19:06.266Z,94.50
2023-04-14T08:21:33.331Z,94.70
2023-04-14T08:24:00.303Z,94.50
2023-04-14T08:26:27.612Z,94.30
2023-04-14T08:28:55.068Z,94.20
2023-04-14T08:31:25.730Z,94.00
2023-04-14T08:33:53.406Z,93.70
2023-04-14T08:36:20.522Z,93.80
2023-04-14T08:38:47.524Z,93.60
2023-04-14T08:41:17.429Z,93.10
2023-04-14T08:43:45.068Z,93.10
2023-04-14T08:46:14.542Z,93.20
2023-04-14T08:48:45.705Z,93.30
2023-04-14T08:51:34.125Z,93.20
2023-04-14T08:54:04.531Z,92.50
2023-04-14T08:56:34.987Z,91.00
2023-04-14T08:59:02.529Z,89.30
2023-04-14T09:01:30.052Z,89.80
2023-04-14T09:03:57.987Z,90.30
2023-04-14T09:06:25.530Z,90.70
2023-04-14T09:08:53.041Z,90.70
2023-04-14T09:11:20.055Z,91.20
2023-04-14T09:13:49.778Z,91.10
2023-04-14T09:16:17.553Z,91.10
2023-04-14T09:18:47.525Z,91.00
2023-04-14T09:21:50.107Z,90.80
2023-04-14T09:24:06.157Z,90.60
2023-04-14T09:26:33.537Z,90.40
2023-04-14T09:29:00.916Z,90.20
2023-04-14T09:31:28.637Z,90.20
2023-04-14T09:33:55.940Z,90.10
2023-04-14T09:36:24.892Z,90.00
2023-04-14T09:38:52.569Z,90.00
2023-04-14T09:41:26.111Z,89.70
2023-04-14T09:43:53.199Z,89.40
2023-04-14T09:46:20.658Z,89.30
2023-04-14T09:48:56.029Z,89.30
2023-04-14T09:51:27.286Z,89.00
2023-04-14T09:53:54.670Z,89.00
2023-04-14T09:56:26.346Z,89.40
2023-04-14T09:58:58.515Z,88.70
2023-04-14T10:01:29.967Z,88.50
2023-04-14T10:03:57.071Z,88.40
2023-04-14T10:06:24.928Z,88.40
2023-04-14T10:08:54.389Z,88.10
2023-04-14T10:11:38.160Z,87.70
2023-04-14T10:14:06.637Z,86.90
2023-04-14T10:16:34.206Z,86.50
2023-04-14T10:19:02.291Z,86.30
2023-04-14T10:21:29.564Z,86.10
2023-04-14T10:23:57.861Z,85.60
2023-04-14T10:26:25.103Z,84.60
2023-04-14T10:28:54.406Z,83.70
2023-04-14T10:31:29.397Z,83.00
2023-04-14T10:33:56.425Z,82.50
2023-04-14T10:36:28.436Z,82.30
2023-04-14T10:39:03.470Z,81.60
2023-04-14T10:41:47.880Z,81.00
2023-04-14T10:44:29.634Z,80.50
2023-04-14T10:46:57.976Z,80.20
2023-04-14T10:49:30.370Z,79.80
2023-04-14T10:52:06.390Z,79.10
2023-04-14T10:54:53.422Z,78.00
2023-04-14T10:57:28.082Z,78.00
2023-04-14T10:59:57.185Z,77.50
2023-04-14T11:02:29.990Z,76.80
2023-04-14T11:05:10.520Z,76.40
2023-04-14T11:07:48.363Z,74.40
2023-04-14T11:10:21.562Z,74.30
2023-04-14T11:13:03.870Z,74.00
2023-04-14T11:15:46.903Z,72.60
2023-04-14T11:18:35.689Z,72.30
2023-04-14T11:21:10.661Z,72.40
2023-04-14T11:23:38.694Z,71.50
2023-04-14T11:26:10.728Z,69.90
2023-04-14T11:28:46.194Z,70.50
2023-04-14T11:31:15.822Z,71.00
2023-04-14T11:33:44.029Z,70.90
2023-04-14T11:36:12.882Z,69.40
2023-04-14T11:38:42.637Z,68.70
2023-04-14T11:41:10.061Z,68.40
2023-04-14T11:43:46.413Z,68.30
2023-04-14T11:46:14.410Z,68.90
2023-04-14T11:48:41.546Z,69.00
2023-04-14T11:51:08.564Z,68.40
2023-04-14T11:53:36.724Z,67.20
2023-04-14T11:56:06.318Z,67.50
2023-04-14T11:58:33.817Z,67.90
2023-04-14T12:01:01.298Z,67.60
2023-04-14T12:03:30.598Z,68.20
2023-04-14T12:06:00.656Z,67.30
2023-04-14T12:08:30.463Z,66.80
2023-04-14T12:10:57.825Z,65.40
2023-04-14T12:13:26.495Z,65.00
2023-04-14T12:15:54.445Z,64.20
2023-04-14T12:18:22.140Z,63.60
2023-04-14T12:20:54.700Z,63.50
2023-04-14T12:23:22.560Z,62.90
2023-04-14T12:25:49.936Z,63.10
2023-04-14T12:28:25.590Z,62.80
2023-04-14T12:30:54.331Z,61.90
2023-04-14T12:33:26.326Z,61.20
2023-04-14T12:35:53.743Z,61.10
2023-04-14T12:38:28.053Z,60.50
2023-04-14T12:40:56.603Z,60.20
2023-04-14T12:43:37.166Z,60.20
2023-04-14T12:46:05.760Z,60.40
2023-04-14T12:48:44.738Z,60.30
2023-04-14T12:51:14.459Z,60.20
2023-04-14T12:53:42.938Z,59.40
2023-04-14T12:56:14.051Z,59.10
2023-04-14T12:58:43.642Z,59.20
2023-04-14T13:01:11.778Z,58.80
2023-04-14T13:03:45.983Z,58.70
2023-04-14T13:06:21.008Z,57.60
2023-04-14T13:08:50.355Z,58.00
2023-04-14T13:11:19.580Z,57.30
2023-04-14T13:13:47.315Z,56.80
2023-04-14T13:16:17.879Z,57.30
2023-04-14T13:18:47.357Z,57.20
2023-04-14T13:21:14.410Z,56.60
2023-04-14T13:23:41.764Z,56.40
2023-04-14T13:26:08.897Z,56.70
2023-04-14T13:28:36.992Z,56.50
2023-04-14T13:31:04.286Z,56.20
2023-04-14T13:33:33.027Z,53.90
2023-04-14T13:36:02.310Z,50.20
2023-04-14T13:38:29.660Z,52.60
2023-04-14T13:40:56.936Z,54.50
2023-04-14T13:43:24.778Z,55.60
2023-04-14T13:45:52.839Z,55.80
2023-04-14T13:48:20.141Z,55.00
2023-04-14T13:50:47.547Z,54.60
2023-04-14T13:53:14.532Z,54.30
2023-04-14T13:55:41.792Z,54.20
2023-04-14T13:58:08.862Z,54.00
2023-04-14T14:00:36.261Z,54.00
2023-04-14T14:03:03.597Z,54.70
2023-04-14T14:05:30.810Z,54.30
2023-04-14T14:07:57.917Z,54.10
2023-04-14T14:10:24.862Z,53.70
2023-04-14T14:12:51.899Z,52.90
2023-04-14T14:15:18.947Z,52.60
2023-04-14T14:17:46.252Z,53.50
2023-04-14T14:20:13.196Z,53.80
2023-04-14T14:22:40.391Z,53.80
2023-04-14T14:25:20.187Z,53.50
2023-04-14T14:27:49.167Z,53.60
2023-04-14T14:30:16.274Z,54.80
2023-04-14T14:32:43.372Z,55.00
2023-04-14T14:35:10.546Z,55.70
2023-04-14T14:37:37.571Z,55.80
2023-04-14T14:40:04.889Z,56.00
2023-04-14T14:42:32.164Z,55.50
2023-04-14T14:44:59.715Z,55.40
2023-04-14T14:47:28.855Z,55.40
2023-04-14T14:50:02.824Z,55.00
2023-04-14T14:52:32.232Z,55.60
2023-04-14T14:54:59.228Z,56.30
2023-04-14T14:57:27.028Z,55.80
2023-04-14T14:59:53.998Z,56.40
2023-04-14T15:02:21.561Z,56.70
2023-04-14T15:04:49.019Z,56.70
2023-04-14T15:07:16.051Z,56.10
2023-04-14T15:09:43.186Z,56.10
2023-04-14T15:12:10.246Z,56.30
2023-04-14T15:14:37.167Z,56.30
2023-04-14T15:17:04.051Z,55.70
2023-04-14T15:19:31.006Z,55.40
2023-04-14T15:21:58.436Z,55.20
2023-04-14T15:24:25.343Z,55.70
2023-04-14T15:26:52.316Z,55.90
2023-04-14T15:29:19.589Z,56.60
2023-04-14T15:31:46.634Z,56.90
2023-04-14T15:34:13.631Z,57.90
2023-04-14T15:36:40.599Z,58.30
2023-04-14T15:39:07.673Z,58.80
2023-04-14T15:41:36.451Z,59.40
2023-04-14T15:44:03.651Z,59.60
2023-04-14T15:46:31.110Z,60.10
2023-04-14T15:48:59.110Z,60.10
2023-04-14T15:51:26.153Z,60.70
2023-04-14T15:53:53.048Z,60.80
2023-04-14T15:56:23.326Z,61.00
2023-04-14T15:58:50.609Z,61.20
2023-04-14T16:01:17.739Z,61.80
2023-04-14T16:03:45.016Z,61.70
2023-04-14T16:06:12.320Z,61.60
2023-04-14T16:08:39.385Z,61.70
2023-04-14T16:11:06.365Z,61.80
2023-04-14T16:13:33.219Z,62.00
2023-04-14T16:16:00.287Z,62.30
2023-04-14T16:18:27.832Z,62.60
2023-04-14T16:20:54.879Z,62.80
2023-04-14T16:23:22.027Z,63.60
2023-04-14T16:25:50.052Z,63.20
2023-04-14T16:28:17.087Z,63.40
2023-04-14T16:30:44.115Z,63.90
2023-04-14T16:33:11.253Z,64.20
2023-04-14T16:35:38.317Z,64.90
2023-04-14T16:38:08.518Z,65.10
2023-04-14T16:40:36.781Z,65.00
2023-04-14T16:43:04.317Z,65.10
2023-04-14T16:45:32.204Z,65.40
2023-04-14T16:47:59.491Z,65.60
2023-04-14T16:50:27.359Z,65.80
2023-04-14T16:52:54.513Z,66.20
2023-04-14T16:55:21.553Z,66.80
2023-04-14T16:57:48.434Z,66.80
2023-04-14T17:00:16.776Z,66.90
2023-04-14T17:02:43.982Z,67.10
2023-04-14T17:05:13.221Z,67.30
2023-04-14T17:07:41.103Z,67.90
2023-04-14T17:10:08.552Z,68.30
2023-04-14T17:12:35.465Z,68.50
2023-04-14T17:15:03.693Z,69.00
2023-04-14T17:17:31.651Z,69.30
2023-04-14T17:19:58.601Z,69.50
2023-04-14T17:22:25.425Z,69.50
2023-04-14T17:24:52.633Z,69.70
2023-04-14T17:27:20.159Z,69.90
2023-04-14T17:29:47.464Z,70.20
2023-04-14T17:32:14.671Z,70.40
2023-04-14T17:34:41.573Z,70.70
2023-04-14T17:37:08.892Z,71.00
2023-04-14T17:39:35.890Z,71.40
2023-04-14T17:42:03.470Z,71.90
2023-04-14T17:44:36.194Z,72.20
2023-04-14T17:47:11.114Z,72.50
2023-04-14T17:49:38.332Z,72.80
2023-04-14T17:52:17.006Z,73.10
2023-04-14T17:54:45.069Z,73.50
2023-04-14T17:57:13.412Z,73.80
2023-04-14T17:59:41.619Z,74.00
2023-04-14T18:02:14.033Z,74.30
2023-04-14T18:04:41.372Z,74.50
2023-04-14T18:07:08.264Z,74.60
2023-04-14T18:09:35.988Z,74.70
2023-04-14T18:12:03.222Z,74.80
2023-04-14T18:14:31.095Z,74.80
2023-04-14T18:16:58.519Z,74.80
2023-04-14T18:19:25.581Z,75.00
2023-04-14T18:21:52.682Z,75.20
2023-04-14T18:26:49.449Z,76.20
2023-04-14T18:29:16.315Z,76.80
2023-04-14T18:31:43.196Z,77.00
2023-04-14T18:34:11.704Z,77.90
2023-04-14T18:36:38.781Z,77.50
2023-04-14T18:39:07.099Z,77.90
2023-04-14T18:41:34.227Z,78.20
2023-04-14T18:44:01.178Z,78.50
2023-04-14T18:46:28.523Z,78.80
2023-04-14T18:48:55.577Z,79.00
2023-04-14T18:51:22.433Z,79.30
2023-04-14T18:53:49.542Z,79.50
2023-04-14T18:56:16.386Z,79.60
2023-04-14T18:58:43.284Z,79.90
2023-04-14T19:01:10.477Z,80.30
2023-04-14T19:03:37.728Z,80.50
2023-04-14T19:06:04.899Z,80.60
2023-04-14T19:08:31.914Z,80.60
2023-04-14T19:10:59.354Z,80.60
2023-04-14T19:13:26.556Z,80.40
2023-04-14T19:16:02.685Z,80.30
2023-04-14T19:18:29.662Z,80.10
2023-04-14T19:20:57.128Z,80.00
2023-04-14T19:23:24.263Z,79.70
2023-04-14T19:25:51.085Z,79.30
2023-04-14T19:28:18.265Z,78.80
2023-04-14T19:30:45.994Z,78.30
2023-04-14T19:33:13.107Z,77.80
2023-04-14T19:35:40.140Z,77.40
2023-04-14T19:38:08.620Z,76.80
2023-04-14T19:40:35.638Z,76.10
2023-04-14T19:43:02.667Z,75.40
2023-04-14T19:45:29.959Z,74.90
2023-04-14T19:47:57.429Z,74.40
2023-04-14T19:50:24.340Z,74.00
2023-04-14T19:52:52.400Z,73.60
2023-04-14T19:55:19.361Z,73.20
2023-04-14T19:57:47.080Z,72.70
2023-04-14T20:00:15.723Z,72.20
2023-04-14T20:02:42.949Z,71.90
2023-04-14T20:05:10.069Z,71.40
2023-04-14T20:07:37.063Z,70.80
2023-04-14T20:10:04.192Z,70.30
2023-04-14T20:12:31.167Z,70.30
2023-04-14T20:14:58.264Z,71.50
2023-04-14T20:17:27.291Z,73.00
2023-04-14T20:19:54.776Z,73.80
2023-04-14T20:22:21.767Z,74.50
2023-04-14T20:24:48.647Z,75.20
2023-04-14T20:27:15.582Z,75.80
2023-04-14T20:29:42.500Z,76.20
2023-04-14T20:32:09.685Z,76.90
2023-04-14T20:34:36.522Z,77.10
2023-04-14T20:37:03.564Z,77.40
2023-04-14T20:39:30.610Z,77.60
2023-04-14T20:41:57.561Z,77.60
2023-04-14T20:44:24.524Z,77.70
2023-04-14T20:46:52.044Z,77.90
2023-04-14T20:49:18.916Z,78.10
2023-04-14T20:51:46.912Z,78.50
2023-04-14T20:54:13.981Z,78.70
2023-04-14T20:56:41.115Z,78.90
2023-04-14T20:59:08.047Z,79.30
2023-04-14T21:01:35.071Z,79.60
2023-04-14T21:04:02.101Z,80.00
2023-04-14T21:06:32.415Z,80.00
2023-04-14T21:09:00.112Z,80.30
2023-04-14T21:11:27.380Z,80.50
2023-04-14T21:15:44.848Z,80.60
2023-04-14T21:16:41.869Z,81.30
2023-04-14T21:19:09.454Z,81.60
2023-04-14T21:21:36.870Z,81.90
2023-04-14T21:24:04.024Z,82.10
2023-04-14T21:26:31.482Z,82.40
2023-04-14T21:28:58.400Z,82.60
2023-04-14T21:31:26.176Z,82.80
2023-04-14T21:33:53.125Z,82.90
2023-04-14T21:36:20.549Z,82.70
2023-04-14T21:38:48.071Z,83.10
2023-04-14T21:41:16.211Z,83.30
2023-04-14T21:43:43.486Z,83.50
2023-04-14T21:46:10.588Z,83.70
2023-04-14T21:48:37.563Z,83.80
2023-04-14T21:51:04.987Z,83.90
2023-04-14T21:53:32.311Z,84.10
2023-04-14T21:56:09.733Z,84.40
2023-04-14T21:58:41.259Z,84.50
2023-04-14T22:01:10.293Z,84.70
2023-04-14T22:03:40.875Z,84.90
2023-04-14T22:06:10.011Z,85.00
2023-04-14T22:08:38.610Z,85.10
2023-04-14T22:11:07.013Z,85.20
2023-04-14T22:13:34.032Z,85.40
2023-04-14T22:16:01.012Z,85.40
2023-04-14T22:18:28.810Z,85.60
2023-04-14T22:20:55.762Z,85.70
2023-04-14T22:23:23.263Z,85.80
2023-04-14T22:25:50.899Z,85.90
2023-04-14T22:28:17.766Z,85.90
2023-04-14T22:30:44.856Z,86.00
2023-04-14T22:33:12.028Z,86.20
2023-04-14T22:35:39.593Z,86.20
2023-04-14T22:38:07.131Z,86.30
2023-04-14T22:40:34.098Z,86.50
2023-04-14T22:43:02.107Z,86.70
2023-04-14T22:45:29.327Z,86.70
2023-04-14T22:47:56.346Z,86.80
2023-04-14T22:50:23.408Z,87.00
2023-04-14T22:52:50.323Z,87.20
2023-04-14T22:55:17.274Z,87.30
2023-04-14T22:57:44.244Z,87.20
2023-04-14T23:00:11.899Z,87.30
2023-04-14T23:02:41.099Z,87.50
2023-04-14T23:05:10.103Z,87.70
2023-04-14T23:07:37.840Z,87.80
2023-04-14T23:10:09.141Z,87.80
2023-04-14T23:12:36.664Z,87.00
2023-04-14T23:15:04.535Z,86.60
2023-04-14T23:17:33.981Z,87.30
2023-04-14T23:20:01.768Z,88.00
2023-04-14T23:22:29.663Z,88.30
2023-04-14T23:24:56.681Z,88.50
2023-04-14T23:27:23.592Z,88.90
2023-04-14T23:29:50.640Z,89.30
2023-04-14T23:32:17.541Z,89.40
2023-04-14T23:34:44.399Z,89.40
2023-04-14T23:37:12.566Z,89.30
2023-04-14T23:39:39.377Z,89.10
2023-04-14T23:42:06.885Z,89.00
2023-04-14T23:44:33.792Z,88.90
2023-04-14T23:47:01.084Z,89.10
2023-04-14T23:49:34.186Z,89.10
2023-04-14T23:52:03.423Z,89.00
2023-04-14T23:54:31.746Z,89.00
2023-04-14T23:56:58.768Z,88.80
2023-04-14T23:59:26.364Z,88.90
